»·PEaware :: N292MC M94-S36

N292MC :: M94-S36

FLIGHT INFORMATION

Flight Status: Arrived
Operator: Privately registered:
United States
More flights under this callsign
Pilot: Maurice C. (12314)
Aircraft: Unknown
(KODI)
More flights by this aircraft type
Origin: M94 Desert Aire
United States
Destination: S36 Norman Grier Field
United States
More flights between these airports :: More routes between these airports
Route: ELN
File this flight plan on PilotEdge
Remarks: ALPHABET CHALLENGE
Altitude:
(Current/Filed)
8,500ft
Speed:
(Current/Filed)
180kts
Departed: 05-May-20 02:13 PM
Arrived: 05-May-20 02:55 PM
Distance/Time
Traveled:
98nm/0:42
Distance/Time
To Go:
Arrived

Flight Plot

Page will automatically refresh every two minutes.

Flight plan parsing failed; only flown route is shown


Map Options




Map Legend


Flown Route
Filed Route
Departure Airport
Arrival Airport
Navaid (VOR, NDB)
Fix

Horizontal Profiles

Position Reports

Time Latitude Longitude Heading Altitude Ground
Speed
05-May-20 13:59 46.688668 -119.926441 296 551ft 0kts
05-May-20 14:00 46.688668 -119.926441 296 551ft 0kts
05-May-20 14:02 46.688668 -119.926442 296 551ft 0kts
05-May-20 14:03 46.688668 -119.926442 296 551ft 0kts
05-May-20 14:04 46.688668 -119.926442 296 551ft 0kts
05-May-20 14:05 46.688668 -119.926442 296 551ft 0kts
05-May-20 14:06 46.688668 -119.926442 296 551ft 0kts
05-May-20 14:07 46.688668 -119.926442 296 551ft 0kts
05-May-20 14:08 46.688668 -119.926442 296 551ft 0kts
05-May-20 14:09 46.688668 -119.926442 296 551ft 0kts
05-May-20 14:10 46.688668 -119.926442 296 551ft 0kts
05-May-20 14:11 46.688669 -119.926445 296 551ft 0kts
05-May-20 14:12 46.689070 -119.926526 38 551ft 0kts
05-May-20 14:13 46.687465 -119.920489 117 575ft 79kts
05-May-20 14:14 46.687886 -119.875048 45 1430ft 156kts
05-May-20 14:15 46.730668 -119.870027 339 2163ft 171kts
05-May-20 14:16 46.775446 -119.894731 341 2877ft 172kts
05-May-20 14:17 46.822310 -119.891823 12 3547ft 171kts
05-May-20 14:17 46.861346 -119.880852 11 4081ft 172kts
05-May-20 14:19 46.910908 -119.898318 297 4819ft 174kts
05-May-20 14:19 46.918048 -119.955358 283 5467ft 170kts
05-May-20 14:20 46.932000 -120.021564 286 6227ft 171kts
05-May-20 14:22 46.948529 -120.099149 286 7083ft 172kts
05-May-20 14:22 46.960377 -120.154873 285 7682ft 171kts
05-May-20 14:23 46.974464 -120.221376 284 8386ft 171kts
05-May-20 14:24 46.989340 -120.291705 285 8488ft 189kts
05-May-20 14:25 47.005015 -120.365959 285 8478ft 192kts
05-May-20 14:26 47.020690 -120.440746 285 8476ft 192kts
05-May-20 14:27 47.035614 -120.515994 283 8470ft 192kts
05-May-20 14:28 47.050379 -120.591119 284 8469ft 192kts
05-May-20 14:29 47.064329 -120.662014 283 8488ft 191kts
05-May-20 14:30 47.076505 -120.724172 283 8512ft 191kts
05-May-20 14:31 47.092746 -120.807267 283 8509ft 192kts
05-May-20 14:32 47.105483 -120.872720 283 8524ft 191kts
05-May-20 14:33 47.118257 -120.938691 282 8521ft 192kts
05-May-20 14:34 47.131048 -121.004777 282 8517ft 192kts
05-May-20 14:35 47.144023 -121.072181 282 8514ft 192kts
05-May-20 14:36 47.156833 -121.138944 282 8508ft 192kts
05-May-20 14:37 47.168717 -121.206410 281 8505ft 192kts
05-May-20 14:38 47.181003 -121.273670 282 8510ft 192kts
05-May-20 14:39 47.193279 -121.339942 282 8515ft 191kts
05-May-20 14:40 47.206697 -121.405916 288 8524ft 192kts
05-May-20 14:41 47.220389 -121.472785 281 8178ft 200kts
05-May-20 14:42 47.233264 -121.542541 283 7637ft 203kts
05-May-20 14:43 47.246399 -121.612556 284 7068ft 203kts
05-May-20 14:44 47.257600 -121.672640 283 6628ft 200kts
05-May-20 14:45 47.272034 -121.750199 284 5857ft 197kts
05-May-20 14:46 47.284288 -121.816958 284 4850ft 161kts
05-May-20 14:47 47.294733 -121.873749 284 4443ft 138kts
05-May-20 14:48 47.303257 -121.919964 284 3920ft 116kts
05-May-20 14:49 47.311220 -121.963238 285 3184ft 124kts
05-May-20 14:50 47.313543 -122.006229 253 2425ft 122kts
05-May-20 14:51 47.305404 -122.042894 253 1651ft 110kts
05-May-20 14:52 47.300439 -122.080255 274 1474ft 109kts
05-May-20 14:53 47.318307 -122.099158 350 870ft 75kts
05-May-20 14:54 47.334457 -122.102953 351 477ft 36kts
05-May-20 14:55 47.339657 -122.103862 347 477ft 10kts
05-May-20 14:56 47.339862 -122.103777 76 477ft 0kts

Navigation Log

Ident Type
Flight plan parsing failed, navigation log unavailable